Time;durP1;ratioP1;P1;durP2;ratioP2;P2;SDS_P1;SDS_P2;PMS_P1;PMS_P2;Temp;Humidity;BMP_temperature;BMP_pressure;BME280_temperature;BME280_humidity;BME280_pressure;Samples;Min_cycle;Max_cycle;Signal;HPM_P1;HPM_P2
2023/06/15 00:00:09;;;;;;;49.80;17.97;;;10.80;99.90;;;;;;4375115;28;661429;-78
2023/06/15 00:02:56;;;;;;;32.27;17.20;;;10.80;99.90;;;;;;4348943;28;660526;-78
2023/06/15 00:05:45;;;;;;;35.37;18.80;;;10.70;99.90;;;;;;4366785;28;661905;-75
2023/06/15 00:08:32;;;;;;;43.70;19.77;;;10.70;99.90;;;;;;4359622;27;662185;-77
2023/06/15 00:11:19;;;;;;;38.17;18.20;;;10.70;99.90;;;;;;4372890;28;661028;-76
2023/06/15 00:14:07;;;;;;;83.13;18.67;;;10.70;99.90;;;;;;4354241;28;660913;-77
2023/06/15 00:16:54;;;;;;;75.10;20.43;;;10.80;99.90;;;;;;4372365;28;661015;-77
2023/06/15 00:19:44;;;;;;;50.70;19.60;;;10.90;99.90;;;;;;4359979;27;661232;-78
2023/06/15 00:22:34;;;;;;;53.23;19.47;;;10.90;99.90;;;;;;4356541;27;661816;-77
2023/06/15 00:25:21;;;;;;;73.30;20.30;;;10.90;99.90;;;;;;4370211;28;660844;-77
2023/06/15 00:28:08;;;;;;;59.60;20.67;;;10.90;99.90;;;;;;4375704;27;662019;-75
2023/06/15 00:30:56;;;;;;;74.40;21.97;;;10.90;99.90;;;;;;4359253;28;661003;-76
2023/06/15 00:33:43;;;;;;;65.03;20.43;;;10.90;99.90;;;;;;4376610;28;661970;-77
2023/06/15 00:36:30;;;;;;;60.70;21.53;;;10.80;99.90;;;;;;4358817;28;661144;-75
2023/06/15 00:39:19;;;;;;;42.53;20.73;;;10.80;99.90;;;;;;4382479;27;661925;-78
2023/06/15 00:42:07;;;;;;;48.95;20.48;;;10.80;99.90;;;;;;4356693;28;660800;-76
2023/06/15 00:44:54;;;;;;;50.53;19.30;;;10.80;99.90;;;;;;4375144;28;663356;-77
2023/06/15 00:47:43;;;;;;;115.03;21.47;;;10.70;99.90;;;;;;4351875;27;661137;-75
2023/06/15 00:50:30;;;;;;;70.30;19.37;;;10.70;99.90;;;;;;4363165;27;661522;-76
2023/06/15 00:53:18;;;;;;;68.17;18.30;;;10.60;99.90;;;;;;4367781;28;662438;-78
2023/06/15 00:56:07;;;;;;;73.43;17.90;;;10.50;99.90;;;;;;4384935;27;661400;-74
2023/06/15 00:58:54;;;;;;;63.70;17.60;;;10.40;99.90;;;;;;4377128;28;660562;-76
2023/06/15 01:01:42;;;;;;;34.27;17.03;;;10.40;99.90;;;;;;4350290;28;661144;-77
2023/06/15 01:04:29;;;;;;;62.50;15.80;;;10.40;99.90;;;;;;4375206;28;661138;-76
2023/06/15 01:07:16;;;;;;;383.03;22.10;;;10.30;99.90;;;;;;4358873;28;660868;-77
2023/06/15 01:10:04;;;;;;;47.20;16.70;;;10.10;99.90;;;;;;4378234;28;662917;-77
2023/06/15 01:12:54;;;;;;;27.70;15.87;;;10.00;99.90;;;;;;4350045;28;660602;-77
2023/06/15 01:15:41;;;;;;;24.27;15.20;;;10.00;99.90;;;;;;4351581;28;661388;-76
2023/06/15 01:18:29;;;;;;;28.10;15.53;;;9.80;99.90;;;;;;4374861;28;661465;-77
2023/06/15 01:21:16;;;;;;;24.13;14.97;;;9.80;99.90;;;;;;4347955;28;659685;-76
2023/06/15 01:24:13;;;;;;;21.87;14.40;;;9.80;99.90;;;;;;4384554;27;659924;-77
2023/06/15 01:27:04;;;;;;;22.90;14.30;;;9.70;99.90;;;;;;4343217;27;661477;-76
2023/06/15 01:29:52;;;;;;;21.70;14.18;;;9.60;99.90;;;;;;4353946;28;659923;-75
2023/06/15 01:32:39;;;;;;;21.83;14.03;;;9.60;99.90;;;;;;4375219;28;659797;-76
2023/06/15 01:35:26;;;;;;;18.97;12.80;;;9.50;99.90;;;;;;4359612;27;660777;-77
2023/06/15 01:38:13;;;;;;;17.63;12.23;;;9.40;99.90;;;;;;4375542;28;660856;-76
2023/06/15 01:41:01;;;;;;;19.80;13.33;;;9.30;99.90;;;;;;4359009;28;659805;-76
2023/06/15 01:43:50;;;;;;;17.07;12.37;;;9.20;99.90;;;;;;4372429;28;659358;-77
2023/06/15 01:46:38;;;;;;;17.30;11.90;;;9.10;99.90;;;;;;4351611;28;661414;-77
2023/06/15 01:49:25;;;;;;;20.08;11.85;;;9.10;99.90;;;;;;4370253;28;660230;-75
2023/06/15 01:52:13;;;;;;;19.13;11.77;;;9.00;99.90;;;;;;4377235;28;660429;-78
2023/06/15 01:55:00;;;;;;;22.33;12.83;;;8.90;99.90;;;;;;4374180;27;659683;-74
2023/06/15 01:57:48;;;;;;;21.67;12.53;;;8.90;99.90;;;;;;4397571;27;660290;-76
2023/06/15 02:00:37;;;;;;;15.90;11.23;;;8.80;99.90;;;;;;4380881;28;660989;-75
2023/06/15 02:03:24;;;;;;;13.50;10.17;;;8.80;99.90;;;;;;4380914;28;659305;-77
2023/06/15 02:06:11;;;;;;;14.47;10.27;;;8.90;99.90;;;;;;4361842;28;659732;-78
2023/06/15 02:08:58;;;;;;;14.17;10.23;;;8.80;99.90;;;;;;4386136;27;660420;-77
2023/06/15 02:11:46;;;;;;;14.17;10.53;;;8.90;99.90;;;;;;4370534;28;659831;-76
2023/06/15 02:14:33;;;;;;;14.40;10.63;;;8.90;99.90;;;;;;4389900;28;660148;-78
2023/06/15 02:17:24;;;;;;;16.17;11.37;;;9.00;99.90;;;;;;4374213;27;659644;-74
2023/06/15 02:20:12;;;;;;;12.65;9.90;;;9.10;99.90;;;;;;4361959;28;659860;-77
2023/06/15 02:22:59;;;;;;;13.97;10.33;;;9.00;99.90;;;;;;4379180;28;659829;-77
2023/06/15 02:25:46;;;;;;;12.73;10.10;;;9.00;99.90;;;;;;4366988;28;660384;-78
2023/06/15 02:28:33;;;;;;;15.83;11.27;;;9.20;99.90;;;;;;4279194;27;661010;-75
2023/06/15 02:31:22;;;;;;;16.13;11.90;;;9.30;99.90;;;;;;4226219;28;660018;-75
2023/06/15 02:34:10;;;;;;;15.60;10.10;;;9.40;99.90;;;;;;4264865;27;659490;-75
2023/06/15 02:36:58;;;;;;;13.97;11.03;;;9.50;99.90;;;;;;4289523;28;660788;-77
2023/06/15 02:39:45;;;;;;;22.73;10.37;;;9.50;99.90;;;;;;4376756;27;659542;-76
2023/06/15 02:42:32;;;;;;;15.47;10.97;;;9.50;99.90;;;;;;4389812;28;659608;-78
2023/06/15 02:45:20;;;;;;;14.00;10.90;;;9.60;99.90;;;;;;4382936;28;659215;-78
2023/06/15 02:48:08;;;;;;;14.30;10.97;;;9.70;99.90;;;;;;4353151;28;660690;-78
2023/06/15 02:50:57;;;;;;;14.83;10.77;;;9.80;99.90;;;;;;4376816;27;659945;-76
2023/06/15 02:53:44;;;;;;;14.37;10.77;;;9.80;99.90;;;;;;4394425;27;659354;-77
2023/06/15 02:56:34;;;;;;;14.53;11.17;;;9.90;99.90;;;;;;4354875;28;660467;-77
2023/06/15 02:59:25;;;;;;;13.85;10.52;;;9.90;99.90;;;;;;4356848;28;660774;-77
2023/06/15 03:02:13;;;;;;;13.98;10.57;;;9.90;99.90;;;;;;4351205;27;660014;-78
2023/06/15 03:05:02;;;;;;;18.90;11.00;;;10.00;99.90;;;;;;4374511;27;659821;-76
2023/06/15 03:07:51;;;;;;;18.23;11.60;;;10.10;99.90;;;;;;4376030;28;660775;-77
2023/06/15 03:10:38;;;;;;;15.10;11.43;;;10.20;99.90;;;;;;4365913;28;661057;-78
2023/06/15 03:13:26;;;;;;;17.23;11.03;;;10.30;99.90;;;;;;4353889;27;661216;-75
2023/06/15 03:16:15;;;;;;;16.07;11.20;;;10.30;99.90;;;;;;4382428;28;661658;-78
2023/06/15 03:19:03;;;;;;;16.40;11.33;;;10.40;99.90;;;;;;4351044;28;661885;-79
2023/06/15 03:21:50;;;;;;;25.10;13.23;;;10.40;99.90;;;;;;4363369;28;660774;-76
2023/06/15 03:24:39;;;;;;;32.30;15.03;;;10.50;99.90;;;;;;4390980;28;662242;-79
2023/06/15 03:27:29;;;;;;;26.03;14.83;;;10.60;99.90;;;;;;4355637;28;661264;-78
2023/06/15 03:30:17;;;;;;;218.87;18.23;;;10.60;99.90;;;;;;4356545;28;661231;-77
2023/06/15 03:33:04;;;;;;;60.20;17.70;;;10.70;99.90;;;;;;4377341;28;662792;-78
2023/06/15 03:35:53;;;;;;;214.90;17.60;;;10.70;99.90;;;;;;4355511;27;661527;-78
2023/06/15 03:38:41;;;;;;;230.43;21.17;;;10.80;99.90;;;;;;4363159;28;662480;-75
2023/06/15 03:41:30;;;;;;;82.55;22.00;;;10.90;99.90;;;;;;4387784;27;662476;-77
2023/06/15 03:44:18;;;;;;;220.67;22.47;;;11.00;99.90;;;;;;4353678;28;661758;-78
2023/06/15 03:47:05;;;;;;;137.27;21.00;;;11.10;99.90;;;;;;4369701;28;662790;-76
2023/06/15 03:49:53;;;;;;;176.73;19.43;;;11.00;99.90;;;;;;4392512;27;662264;-75
2023/06/15 03:52:40;;;;;;;222.07;19.87;;;11.10;99.90;;;;;;4366985;28;661517;-75
2023/06/15 03:55:27;;;;;;;145.20;20.87;;;11.20;99.90;;;;;;4376012;28;662694;-78
2023/06/15 03:58:17;;;;;;;118.10;19.97;;;11.30;99.90;;;;;;4376583;27;661597;-77
2023/06/15 04:01:05;;;;;;;120.93;19.03;;;11.50;99.90;;;;;;4391201;27;662389;-79
2023/06/15 04:03:52;;;;;;;96.07;18.05;;;11.50;99.90;;;;;;4364455;28;662435;-78
2023/06/15 04:06:46;;;;;;;127.37;18.10;;;11.60;99.90;;;;;;4376097;27;660301;-75
2023/06/15 04:09:33;;;;;;;117.23;17.53;;;11.60;99.90;;;;;;4364282;27;662518;-78
2023/06/15 04:12:20;;;;;;;108.63;17.30;;;11.70;99.90;;;;;;4359476;28;661796;-77
2023/06/15 04:15:11;;;;;;;164.57;19.93;;;11.60;99.90;;;;;;4391373;27;662502;-77
2023/06/15 04:18:00;;;;;;;163.07;18.00;;;11.70;99.90;;;;;;4348352;28;662653;-79
2023/06/15 04:20:47;;;;;;;131.53;19.93;;;11.80;99.90;;;;;;4366910;28;662914;-78
2023/06/15 04:23:35;;;;;;;190.87;19.70;;;11.80;99.90;;;;;;4380204;28;662415;-79
2023/06/15 04:26:22;;;;;;;80.07;20.67;;;11.90;99.90;;;;;;4348090;28;663758;-78
2023/06/15 04:29:09;;;;;;;73.67;18.87;;;11.90;99.90;;;;;;4391918;27;660515;-79
2023/06/15 04:31:58;;;;;;;77.23;19.17;;;12.00;99.90;;;;;;4356354;28;660676;-80
2023/06/15 04:34:45;;;;;;;79.40;19.50;;;12.10;99.90;;;;;;4357931;28;661526;-75
2023/06/15 04:37:32;;;;;;;67.03;19.57;;;12.00;99.90;;;;;;4383588;28;661027;-77
2023/06/15 04:40:21;;;;;;;59.97;18.23;;;11.90;99.90;;;;;;4379485;28;660453;-75
2023/06/15 04:43:08;;;;;;;57.23;18.60;;;11.90;99.90;;;;;;4388778;28;660776;-76
2023/06/15 04:45:55;;;;;;;51.37;20.23;;;12.00;99.90;;;;;;4358028;28;660685;-75
2023/06/15 04:48:44;;;;;;;62.03;20.40;;;12.20;99.90;;;;;;4380395;28;660419;-79
2023/06/15 04:51:32;;;;;;;51.93;18.73;;;12.40;99.90;;;;;;4353913;28;662098;-81
2023/06/15 04:54:19;;;;;;;132.18;20.77;;;12.50;99.90;;;;;;4368722;28;661301;-80
2023/06/15 04:57:08;;;;;;;107.70;21.00;;;12.60;99.90;;;;;;4365309;28;663028;-80
2023/06/15 04:59:55;;;;;;;182.03;24.87;;;12.40;99.90;;;;;;4352262;28;662172;-77
2023/06/15 05:02:43;;;;;;;481.33;28.80;;;12.30;99.90;;;;;;4376530;28;662796;-80
2023/06/15 05:05:32;;;;;;;216.73;28.10;;;12.10;99.90;;;;;;4356659;28;663013;-77
2023/06/15 05:08:19;;;;;;;315.97;29.97;;;12.10;99.90;;;;;;4378459;28;662004;-80
2023/06/15 05:11:06;;;;;;;291.65;30.50;;;12.10;99.90;;;;;;4351576;28;663577;-77
2023/06/15 05:13:55;;;;;;;354.60;33.23;;;12.30;99.90;;;;;;4389757;27;661516;-80
2023/06/15 05:16:42;;;;;;;258.60;30.93;;;12.20;99.90;;;;;;4369428;27;662558;-80
2023/06/15 05:19:29;;;;;;;365.47;28.93;;;12.00;99.90;;;;;;4377341;28;661972;-82
2023/06/15 05:22:18;;;;;;;299.60;28.57;;;12.10;99.90;;;;;;4359412;28;661709;-79
2023/06/15 05:25:06;;;;;;;182.83;28.63;;;12.30;99.90;;;;;;4356991;28;662106;-77
2023/06/15 05:27:54;;;;;;;83.87;27.63;;;12.50;99.90;;;;;;4372939;28;663545;-79
2023/06/15 05:30:42;;;;;;;68.47;26.43;;;12.60;99.90;;;;;;4364123;28;661048;-80
2023/06/15 05:33:29;;;;;;;59.43;23.77;;;12.50;99.90;;;;;;4390425;27;660260;-80
2023/06/15 05:36:16;;;;;;;64.60;23.43;;;12.40;99.90;;;;;;4357454;27;660905;-80
2023/06/15 05:39:06;;;;;;;56.47;24.57;;;12.50;99.90;;;;;;4400009;27;662700;-79
2023/06/15 05:41:53;;;;;;;82.03;27.83;;;12.50;99.90;;;;;;4377234;27;662173;-80
2023/06/15 05:44:40;;;;;;;67.37;27.40;;;12.50;99.90;;;;;;4377067;28;661177;-76
2023/06/15 05:47:27;;;;;;;59.07;22.27;;;12.50;99.90;;;;;;4403426;27;661073;-80
2023/06/15 05:50:15;;;;;;;57.00;23.87;;;12.50;99.90;;;;;;4381438;28;661380;-77
2023/06/15 05:53:02;;;;;;;57.40;25.20;;;12.50;99.90;;;;;;4363679;28;661634;-79
2023/06/15 05:55:51;;;;;;;60.00;25.87;;;12.50;99.90;;;;;;4387909;28;661353;-78
2023/06/15 05:58:38;;;;;;;54.97;24.17;;;12.60;99.90;;;;;;4349443;28;661062;-78
2023/06/15 06:01:25;;;;;;;68.07;25.63;;;12.60;99.90;;;;;;4374767;27;660606;-76
2023/06/15 06:04:12;;;;;;;68.17;26.70;;;12.30;99.90;;;;;;4395014;28;660119;-76
2023/06/15 06:07:00;;;;;;;56.70;24.27;;;12.50;99.90;;;;;;4381292;28;660903;-74
2023/06/15 06:09:47;;;;;;;62.63;25.87;;;12.60;99.90;;;;;;4397142;28;660561;-76
2023/06/15 06:12:37;;;;;;;57.23;24.87;;;12.80;99.90;;;;;;4400581;27;661314;-76
2023/06/15 06:15:24;;;;;;;57.90;25.43;;;12.90;99.90;;;;;;4376720;28;661393;-78
2023/06/15 06:18:11;;;;;;;53.37;25.43;;;13.20;99.90;;;;;;4359628;27;660871;-77
2023/06/15 06:20:58;;;;;;;53.27;24.60;;;13.40;99.90;;;;;;4382092;28;661778;-79
2023/06/15 06:23:45;;;;;;;52.07;23.97;;;13.70;99.90;;;;;;4359560;28;660944;-74
2023/06/15 06:26:35;;;;;;;49.50;24.23;;;13.80;99.90;;;;;;4383387;28;661448;-77
2023/06/15 06:29:23;;;;;;;41.20;22.50;;;14.10;99.90;;;;;;4353002;28;661715;-78
2023/06/15 06:32:11;;;;;;;36.63;20.20;;;14.10;99.90;;;;;;4370744;27;660757;-76
2023/06/15 06:34:58;;;;;;;42.70;22.17;;;14.20;99.90;;;;;;4381130;28;661170;-76
2023/06/15 06:37:45;;;;;;;41.47;21.50;;;14.00;99.90;;;;;;4369543;28;661881;-74
2023/06/15 06:40:33;;;;;;;40.47;22.10;;;14.20;99.90;;;;;;4377885;28;663374;-79
2023/06/15 06:43:20;;;;;;;39.87;20.87;;;14.30;99.90;;;;;;4381971;27;661429;-75
2023/06/15 06:46:09;;;;;;;38.30;20.07;;;14.30;99.90;;;;;;4372630;28;660584;-78
2023/06/15 06:48:56;;;;;;;38.47;19.77;;;14.40;99.90;;;;;;4362695;27;661183;-76
2023/06/15 06:51:44;;;;;;;39.10;20.17;;;14.50;99.90;;;;;;4383956;28;660732;-76
2023/06/15 06:54:31;;;;;;;35.80;19.97;;;14.70;99.90;;;;;;4348548;28;660737;-77
2023/06/15 06:57:18;;;;;;;38.60;19.33;;;14.70;99.90;;;;;;4377151;28;661353;-76
2023/06/15 07:00:07;;;;;;;38.63;19.93;;;14.60;99.90;;;;;;4356097;28;660550;-73
2023/06/15 07:02:55;;;;;;;31.40;17.83;;;14.40;99.90;;;;;;4378661;28;661298;-77
2023/06/15 07:05:42;;;;;;;33.40;18.20;;;14.50;99.90;;;;;;4354163;28;661200;-77
2023/06/15 07:08:30;;;;;;;37.33;18.60;;;14.70;99.90;;;;;;4375363;28;660480;-73
2023/06/15 07:11:18;;;;;;;34.90;19.23;;;14.50;99.90;;;;;;4380106;28;660701;-74
2023/06/15 07:14:05;;;;;;;31.10;17.47;;;14.70;99.90;;;;;;4379580;28;660493;-73
2023/06/15 07:16:52;;;;;;;33.60;17.70;;;14.90;99.90;;;;;;4389162;28;661563;-75
2023/06/15 07:19:42;;;;;;;29.93;17.50;;;14.40;99.90;;;;;;4387687;28;660962;-75
2023/06/15 07:22:29;;;;;;;27.13;15.70;;;14.50;99.90;;;;;;4390426;27;660372;-77
2023/06/15 07:25:16;;;;;;;27.60;16.93;;;14.70;99.90;;;;;;4371999;28;660673;-75
2023/06/15 07:28:03;;;;;;;26.23;15.40;;;14.90;99.90;;;;;;4386391;27;661089;-77
2023/06/15 07:30:51;;;;;;;28.47;15.90;;;15.20;99.90;;;;;;4358184;28;661120;-77
2023/06/15 07:33:38;;;;;;;26.33;15.30;;;15.60;99.90;;;;;;4376270;28;661673;-76
2023/06/15 07:36:27;;;;;;;25.10;14.03;;;16.50;99.90;;;;;;4365008;28;660437;-74
2023/06/15 07:39:14;;;;;;;22.13;13.00;;;17.60;99.90;;;;;;4374262;28;661636;-73
2023/06/15 07:42:01;;;;;;;23.37;12.87;;;18.30;99.90;;;;;;4354284;28;661282;-74
2023/06/15 07:44:48;;;;;;;21.87;13.33;;;18.10;99.90;;;;;;4374411;28;661779;-76
2023/06/15 07:47:36;;;;;;;24.50;13.90;;;17.50;99.90;;;;;;4352600;28;660755;-75
2023/06/15 07:50:23;;;;;;;22.23;13.33;;;16.80;99.90;;;;;;4376816;28;661013;-74
2023/06/15 07:53:12;;;;;;;25.63;13.80;;;16.20;99.90;;;;;;4362802;28;661325;-75
2023/06/15 07:55:59;;;;;;;24.63;14.20;;;16.60;99.90;;;;;;4377244;28;660670;-76
2023/06/15 07:58:46;;;;;;;19.40;12.13;;;17.00;99.90;;;;;;4357997;28;661337;-74
2023/06/15 08:01:33;;;;;;;19.27;11.83;;;17.10;99.90;;;;;;4390033;28;661105;-77
2023/06/15 08:04:21;;;;;;;24.00;13.37;;;16.80;99.90;;;;;;4356429;28;660413;-74
2023/06/15 08:07:08;;;;;;;20.23;12.13;;;16.40;99.90;;;;;;4376497;28;661214;-76
2023/06/15 08:09:57;;;;;;;23.13;12.93;;;16.20;99.90;;;;;;4355506;28;660656;-74
2023/06/15 08:12:44;;;;;;;23.90;14.30;;;16.00;99.90;;;;;;4371842;28;661266;-75
2023/06/15 08:15:31;;;;;;;28.77;13.63;;;16.30;99.90;;;;;;4351611;28;661119;-75
2023/06/15 08:18:19;;;;;;;33.20;15.47;;;16.70;99.90;;;;;;4374665;28;660659;-76
2023/06/15 08:21:06;;;;;;;32.70;15.97;;;16.50;99.90;;;;;;4351031;28;661147;-74
2023/06/15 08:23:54;;;;;;;31.17;14.87;;;16.50;99.90;;;;;;4377805;27;661163;-73
2023/06/15 08:26:43;;;;;;;28.20;14.57;;;16.50;99.90;;;;;;4359221;28;660744;-75
2023/06/15 08:29:31;;;;;;;26.03;13.57;;;16.80;99.90;;;;;;4367947;28;662446;-75
2023/06/15 08:32:18;;;;;;;25.13;12.57;;;17.20;99.90;;;;;;4368270;28;661342;-75
2023/06/15 08:35:07;;;;;;;20.87;12.50;;;17.60;99.90;;;;;;4346415;27;660956;-72
2023/06/15 08:37:55;;;;;;;18.70;11.73;;;17.40;99.90;;;;;;4273132;27;661296;-72
2023/06/15 08:40:42;;;;;;;18.43;11.80;;;17.20;99.90;;;;;;4243479;27;660772;-73
2023/06/15 08:43:31;;;;;;;21.90;12.13;;;17.10;99.90;;;;;;4270794;27;661320;-72
2023/06/15 08:46:18;;;;;;;18.13;11.27;;;16.70;99.90;;;;;;4338876;28;660265;-74
2023/06/15 08:49:05;;;;;;;20.23;12.00;;;16.90;99.90;;;;;;4357441;28;660482;-73
2023/06/15 08:51:53;;;;;;;20.17;11.60;;;16.80;99.90;;;;;;4384437;27;661725;-75
2023/06/15 08:54:42;;;;;;;18.43;11.40;;;17.00;99.90;;;;;;4376625;28;661333;-74
2023/06/15 08:57:29;;;;;;;22.03;11.30;;;17.40;99.90;;;;;;4386496;28;660891;-76
2023/06/15 09:00:19;;;;;;;18.37;11.90;;;17.70;99.90;;;;;;4347080;28;661083;-75
2023/06/15 09:03:08;;;;;;;18.00;11.83;;;18.50;99.90;;;;;;4349028;27;661003;-73
2023/06/15 09:05:56;;;;;;;17.67;10.30;;;19.40;99.90;;;;;;4353839;28;661120;-75
2023/06/15 09:08:44;;;;;;;16.90;10.23;;;19.90;99.90;;;;;;4377896;28;661951;-75
2023/06/15 09:11:37;;;;;;;16.10;10.40;;;19.90;99.90;;;;;;4364358;28;660998;-75
2023/06/15 09:14:24;;;;;;;16.33;10.60;;;19.70;99.90;;;;;;4350353;28;661470;-75
2023/06/15 09:17:15;;;;;;;16.50;10.83;;;19.60;99.90;;;;;;4347378;28;661657;-74
2023/06/15 09:20:02;;;;;;;15.53;10.67;;;19.10;99.90;;;;;;4350969;28;661779;-74
2023/06/15 09:22:49;;;;;;;16.50;11.10;;;19.10;99.90;;;;;;4378583;28;660702;-75
2023/06/15 09:25:36;;;;;;;15.53;10.40;;;19.20;99.90;;;;;;4354133;28;661048;-74
2023/06/15 09:28:27;;;;;;;14.97;9.93;;;19.20;99.90;;;;;;4385780;28;661614;-74
2023/06/15 09:31:29;;;;;;;15.70;10.37;;;19.00;99.90;;;;;;4347257;28;661691;-74
2023/06/15 09:34:17;;;;;;;13.77;10.50;;;19.10;99.90;;;;;;4359075;28;660212;-74
2023/06/15 09:37:04;;;;;;;13.50;9.03;;;19.20;99.90;;;;;;4386594;28;661175;-74
2023/06/15 09:39:52;;;;;;;14.93;9.77;;;19.40;99.90;;;;;;4347851;28;660618;-74
2023/06/15 09:42:40;;;;;;;13.60;9.33;;;19.40;99.90;;;;;;4375454;28;659370;-75
2023/06/15 09:45:28;;;;;;;12.47;9.37;;;19.30;99.90;;;;;;4367393;27;660800;-73
2023/06/15 09:48:15;;;;;;;15.93;11.20;;;19.20;99.90;;;;;;4371858;28;659796;-73
2023/06/15 09:51:04;;;;;;;14.20;9.93;;;18.70;99.90;;;;;;4377065;28;660950;-75
2023/06/15 09:53:51;;;;;;;15.43;11.00;;;19.00;99.90;;;;;;4354427;28;660403;-74
2023/06/15 09:56:39;;;;;;;16.23;10.53;;;19.20;99.90;;;;;;4379724;28;661593;-74
2023/06/15 09:59:27;;;;;;;16.03;11.00;;;19.40;99.90;;;;;;4374094;28;661025;-74
2023/06/15 10:02:14;;;;;;;16.87;10.73;;;19.80;99.90;;;;;;4377840;28;661014;-74
2023/06/15 10:05:02;;;;;;;16.17;10.87;;;20.00;99.90;;;;;;4365407;27;660696;-72
2023/06/15 10:07:51;;;;;;;14.35;10.85;;;20.00;99.90;;;;;;4374153;28;660339;-73
2023/06/15 10:10:38;;;;;;;15.83;11.57;;;19.70;99.90;;;;;;4350784;28;662149;-74
2023/06/15 10:13:27;;;;;;;13.10;9.73;;;19.50;99.90;;;;;;4366678;28;660669;-73
2023/06/15 10:16:15;;;;;;;14.77;10.40;;;19.90;99.90;;;;;;4374739;28;660050;-72
2023/06/15 10:19:03;;;;;;;13.37;10.33;;;20.20;99.90;;;;;;4375175;27;660874;-74
2023/06/15 10:21:50;;;;;;;14.27;10.40;;;20.30;99.90;;;;;;4347622;28;661239;-72
2023/06/15 10:24:39;;;;;;;14.17;10.07;;;20.60;99.90;;;;;;4375536;28;662906;-73
2023/06/15 10:27:26;;;;;;;14.90;9.87;;;20.80;99.90;;;;;;4348986;28;660754;-73
2023/06/15 10:30:16;;;;;;;13.30;10.00;;;20.80;99.90;;;;;;4377714;28;660313;-73
2023/06/15 10:33:08;;;;;;;14.17;10.10;;;20.40;99.90;;;;;;4349913;28;660938;-74
2023/06/15 10:35:58;;;;;;;12.53;9.43;;;20.70;99.90;;;;;;4335406;28;661124;-73
2023/06/15 10:38:49;;;;;;;17.37;9.83;;;21.20;99.90;;;;;;4370457;28;660473;-73
2023/06/15 10:41:39;;;;;;;13.87;10.27;;;21.70;99.90;;;;;;4370137;27;659836;-74
2023/06/15 10:44:31;;;;;;;14.82;9.77;;;22.40;99.90;;;;;;4356023;28;660874;-74
2023/06/15 10:47:21;;;;;;;14.87;9.37;;;22.10;97.10;;;;;;4371111;28;660921;-73
2023/06/15 10:50:11;;;;;;;12.90;8.47;;;23.00;94.20;;;;;;4367221;28;659911;-73
2023/06/15 10:52:58;;;;;;;13.37;9.40;;;22.90;95.10;;;;;;4363912;28;659536;-73
2023/06/15 10:55:47;;;;;;;12.60;9.90;;;23.50;98.00;;;;;;4357822;28;660945;-73
2023/06/15 10:58:36;;;;;;;13.00;8.90;;;23.80;91.20;;;;;;4392455;28;660018;-73
2023/06/15 11:01:24;;;;;;;15.48;9.27;;;24.50;89.60;;;;;;4359626;28;660040;-73
2023/06/15 11:04:29;;;;;;;14.48;8.98;;;25.10;81.50;;;;;;4374087;27;659643;-71
2023/06/15 11:07:16;;;;;;;12.73;9.13;;;24.60;74.70;;;;;;4333519;28;660487;-73
2023/06/15 11:10:10;;;;;;;13.27;9.43;;;23.90;67.10;;;;;;4378310;28;660316;-73
2023/06/15 11:13:01;;;;;;;13.50;9.20;;;23.00;73.80;;;;;;4321524;28;660098;-74
2023/06/15 11:15:50;;;;;;;15.00;9.25;;;22.80;74.60;;;;;;4354495;28;660353;-72
2023/06/15 11:18:37;;;;;;;12.97;9.37;;;23.20;76.00;;;;;;4371350;28;660416;-73
2023/06/15 11:21:27;;;;;;;14.18;9.35;;;23.60;74.40;;;;;;4380104;28;660743;-72
2023/06/15 11:24:15;;;;;;;11.67;8.57;;;23.80;73.70;;;;;;4376669;28;659186;-72
2023/06/15 11:27:04;;;;;;;13.10;9.27;;;23.30;71.70;;;;;;4351705;28;660494;-72
2023/06/15 11:29:55;;;;;;;14.27;9.10;;;23.40;72.40;;;;;;4364013;28;660565;-72
2023/06/15 11:32:46;;;;;;;10.50;8.13;;;23.80;73.40;;;;;;4363096;28;661551;-73
2023/06/15 11:35:33;;;;;;;13.15;9.13;;;23.70;74.10;;;;;;4356811;28;660832;-73
2023/06/15 11:38:24;;;;;;;10.98;8.70;;;24.10;74.90;;;;;;4370639;28;659701;-73
2023/06/15 11:41:11;;;;;;;10.98;8.63;;;24.90;64.20;;;;;;4358725;28;660238;-73
2023/06/15 11:43:59;;;;;;;10.63;8.10;;;25.10;59.10;;;;;;4376057;28;660131;-72
2023/06/15 11:46:53;;;;;;;12.07;8.85;;;24.90;61.30;;;;;;4359414;27;659927;-74
2023/06/15 11:49:42;;;;;;;13.55;9.20;;;25.40;59.00;;;;;;4350857;27;659914;-73
2023/06/15 11:52:29;;;;;;;11.82;8.13;;;25.60;59.20;;;;;;4398515;27;660206;-72
2023/06/15 11:55:17;;;;;;;11.10;8.30;;;26.10;56.00;;;;;;4364898;27;660278;-73
2023/06/15 11:58:08;;;;;;;10.85;8.80;;;25.60;57.10;;;;;;4375430;28;659724;-73
2023/06/15 12:00:56;;;;;;;11.13;8.50;;;25.50;58.20;;;;;;4336801;28;659900;-72
2023/06/15 12:03:44;;;;;;;11.80;8.77;;;25.80;55.90;;;;;;4385291;27;660942;-72
2023/06/15 12:06:33;;;;;;;11.40;8.50;;;25.80;54.30;;;;;;4360543;27;659596;-73
2023/06/15 12:09:20;;;;;;;41.03;9.73;;;25.90;55.40;;;;;;4366611;28;660090;-73
2023/06/15 12:12:10;;;;;;;12.20;8.63;;;26.40;53.00;;;;;;4375329;28;660855;-73
2023/06/15 12:14:59;;;;;;;12.05;9.48;;;26.00;50.30;;;;;;4360067;28;659716;-73
2023/06/15 12:17:46;;;;;;;14.03;9.17;;;25.80;53.50;;;;;;4348645;28;660193;-73
2023/06/15 12:20:36;;;;;;;12.52;9.30;;;25.20;53.20;;;;;;4370288;28;660352;-73
2023/06/15 12:23:28;;;;;;;27.88;10.43;;;24.90;52.50;;;;;;4376826;27;660014;-73
2023/06/15 12:26:17;;;;;;;12.02;9.45;;;23.20;55.50;;;;;;4331408;28;661037;-71
2023/06/15 12:29:13;;;;;;;13.53;8.97;;;22.40;57.40;;;;;;4377060;27;659836;-73
2023/06/15 12:32:01;;;;;;;14.35;9.18;;;22.10;59.40;;;;;;4334220;27;660160;-73
2023/06/15 12:34:51;;;;;;;16.07;9.97;;;22.40;59.30;;;;;;4391354;27;660975;-73
2023/06/15 12:37:38;;;;;;;16.73;10.73;;;22.50;65.20;;;;;;4354194;27;660593;-73
2023/06/15 12:40:27;;;;;;;12.80;9.40;;;22.80;65.50;;;;;;4360990;28;661139;-73
2023/06/15 12:43:14;;;;;;;17.37;10.10;;;23.00;65.70;;;;;;4378118;28;659156;-73
2023/06/15 12:46:01;;;;;;;25.30;10.17;;;22.90;65.50;;;;;;4358897;28;661026;-73
2023/06/15 12:48:49;;;;;;;18.53;10.77;;;22.80;65.20;;;;;;4372171;28;661113;-73
2023/06/15 12:51:36;;;;;;;13.68;9.75;;;22.90;65.20;;;;;;4364408;27;660329;-73
2023/06/15 12:54:23;;;;;;;13.15;9.77;;;23.20;64.00;;;;;;4379901;28;660231;-73
2023/06/15 12:57:12;;;;;;;12.82;9.35;;;23.10;60.80;;;;;;4360776;28;659539;-72
2023/06/15 12:59:59;;;;;;;13.25;9.57;;;23.00;61.60;;;;;;4376970;28;659797;-73
2023/06/15 13:02:46;;;;;;;19.20;10.10;;;22.90;59.80;;;;;;4359576;28;660098;-72
2023/06/15 13:05:33;;;;;;;29.47;10.47;;;22.80;59.70;;;;;;4379407;28;662147;-73
2023/06/15 13:08:21;;;;;;;14.60;10.00;;;23.00;63.20;;;;;;4367131;27;660483;-73
2023/06/15 13:11:08;;;;;;;14.13;9.83;;;23.00;62.70;;;;;;4366468;28;661345;-72
2023/06/15 13:13:57;;;;;;;28.33;10.10;;;23.00;60.40;;;;;;4357842;28;659508;-72
2023/06/15 13:16:45;;;;;;;19.10;10.00;;;22.90;62.60;;;;;;4389364;27;660759;-73
2023/06/15 13:19:32;;;;;;;16.40;9.73;;;23.20;63.30;;;;;;4359913;28;660597;-73
2023/06/15 13:22:19;;;;;;;13.93;9.00;;;23.60;63.30;;;;;;4368860;28;660063;-72
2023/06/15 13:25:07;;;;;;;15.15;10.15;;;23.40;60.40;;;;;;4375059;27;660168;-73
2023/06/15 13:27:54;;;;;;;13.57;9.88;;;23.40;63.00;;;;;;4367006;28;661112;-73
2023/06/15 13:30:43;;;;;;;12.27;9.57;;;23.00;60.00;;;;;;4354129;28;660075;-72
2023/06/15 13:33:30;;;;;;;12.85;9.57;;;22.40;63.90;;;;;;4380361;27;659526;-72
2023/06/15 13:36:18;;;;;;;13.40;9.10;;;22.40;65.40;;;;;;4383443;27;660267;-73
2023/06/15 13:39:05;;;;;;;14.32;9.75;;;22.40;69.20;;;;;;4381283;27;660156;-72
2023/06/15 13:41:53;;;;;;;14.77;10.27;;;22.20;65.80;;;;;;4401076;27;660820;-73
2023/06/15 13:44:41;;;;;;;16.27;10.85;;;22.00;69.60;;;;;;4352332;27;660983;-73
2023/06/15 13:47:30;;;;;;;13.17;9.80;;;22.20;72.20;;;;;;4384323;28;660904;-72
2023/06/15 13:50:18;;;;;;;13.93;11.10;;;22.40;69.60;;;;;;4350488;28;660157;-72
2023/06/15 13:53:05;;;;;;;13.07;10.07;;;22.50;69.30;;;;;;4377024;28;661381;-71
2023/06/15 13:55:52;;;;;;;12.07;9.67;;;22.70;65.40;;;;;;4372655;28;661263;-72
2023/06/15 13:58:40;;;;;;;15.10;10.57;;;22.70;65.40;;;;;;4382271;27;659584;-71
2023/06/15 14:01:28;;;;;;;14.23;10.10;;;22.80;67.90;;;;;;4363742;28;661679;-72
2023/06/15 14:04:17;;;;;;;12.25;9.82;;;23.80;73.00;;;;;;4369950;28;660435;-71